Time;durP1;ratioP1;P1;durP2;ratioP2;P2;SDS_P1;SDS_P2;PMS_P1;PMS_P2;Temp;Humidity;BMP_temperature;BMP_pressure;BME280_temperature;BME280_humidity;BME280_pressure;Samples;Min_cycle;Max_cycle;Signal;HPM_P1;HPM_P2
2023/10/01 00:00:18;;;;;;;0.10;0.10;;;;;;;10.38;100.00;97509.41;4994476;28;20089;-84
2023/10/01 00:03:05;;;;;;;0.10;0.10;;;;;;;10.37;100.00;97498.94;4989947;28;20084;-86
2023/10/01 00:05:52;;;;;;;0.10;0.10;;;;;;;10.36;100.00;97510.69;4991931;28;20583;-88
2023/10/01 00:08:39;;;;;;;0.10;0.10;;;;;;;10.34;100.00;97500.16;4989547;28;20153;-84
2023/10/01 00:11:25;;;;;;;0.10;0.10;;;;;;;10.33;100.00;97498.53;4987638;28;20100;-85
2023/10/01 00:14:11;;;;;;;0.10;0.10;;;;;;;10.34;100.00;97502.84;4989246;28;20056;-85
2023/10/01 00:16:58;;;;;;;0.10;0.10;;;;;;;10.35;100.00;97498.31;4987964;28;20042;-85
2023/10/01 00:19:45;;;;;;;0.10;0.10;;;;;;;10.34;100.00;97505.53;4989158;28;20876;-85
2023/10/01 00:22:33;;;;;;;0.10;0.10;;;;;;;10.33;100.00;97496.69;4989022;28;20050;-87
2023/10/01 00:25:21;;;;;;;0.10;0.10;;;;;;;10.33;100.00;97496.69;4987509;28;20085;-84
2023/10/01 00:28:08;;;;;;;0.10;0.10;;;;;;;10.31;100.00;97482.72;4987470;28;20061;-85
2023/10/01 00:30:53;;;;;;;0.10;0.10;;;;;;;10.37;100.00;97482.88;4986876;28;20054;-84
2023/10/01 00:33:41;;;;;;;0.10;0.10;;;;;;;10.30;100.00;97482.94;4987318;28;20100;-84
2023/10/01 00:36:29;;;;;;;0.10;0.10;;;;;;;10.24;100.00;97484.63;4986437;28;20057;-84
2023/10/01 00:39:14;;;;;;;0.10;0.10;;;;;;;10.25;100.00;97486.25;4973123;28;20049;-85
2023/10/01 00:42:00;;;;;;;0.10;0.10;;;;;;;10.19;100.00;97473.75;4971069;28;20061;-85
2023/10/01 00:44:47;;;;;;;0.10;0.10;;;;;;;10.08;100.00;97477.16;4988274;28;20164;-84
2023/10/01 00:47:35;;;;;;;0.10;0.10;;;;;;;9.98;100.00;97468.81;4988200;28;20117;-84
2023/10/01 00:50:22;;;;;;;0.10;0.10;;;;;;;9.98;100.00;97466.16;4971302;28;20540;-83
2023/10/01 00:53:09;;;;;;;0.10;0.10;;;;;;;10.02;100.00;97464.66;4972087;28;20053;-83
2023/10/01 00:55:59;;;;;;;0.10;0.10;;;;;;;10.01;100.00;97465.69;4976032;28;20038;-84
2023/10/01 00:58:45;;;;;;;0.10;0.10;;;;;;;10.04;100.00;97467.94;4974307;28;20577;-85
2023/10/01 01:01:31;;;;;;;0.10;0.10;;;;;;;10.05;100.00;97469.59;4989045;28;20080;-84
2023/10/01 01:04:21;;;;;;;0.10;0.10;;;;;;;10.11;100.00;97465.19;4984170;28;20736;-85
2023/10/01 01:07:14;;;;;;;0.10;0.10;;;;;;;10.18;100.00;97466.75;4974199;28;21015;-85
2023/10/01 01:10:01;;;;;;;0.10;0.10;;;;;;;10.23;100.00;97466.13;4971039;28;20124;-84
2023/10/01 01:12:54;;;;;;;0.10;0.10;;;;;;;10.24;100.00;97457.88;4988513;28;20057;-84
2023/10/01 01:15:39;;;;;;;0.00;0.00;;;;;;;10.24;100.00;97463.22;4974067;28;20696;-86
2023/10/01 01:18:26;;;;;;;0.10;0.10;;;;;;;10.20;100.00;97464.69;4969672;28;20764;-84
2023/10/01 01:21:16;;;;;;;0.10;0.10;;;;;;;10.18;100.00;97460.59;4973865;28;20057;-84
2023/10/01 01:24:03;;;;;;;0.10;0.10;;;;;;;10.20;100.00;97459.34;4987943;28;20034;-84
2023/10/01 01:26:51;;;;;;;0.10;0.10;;;;;;;10.23;100.00;97455.44;4998120;28;20054;-85
2023/10/01 01:29:44;;;;;;;0.10;0.10;;;;;;;10.19;100.00;97456.88;4992796;28;20514;-86
2023/10/01 01:32:32;;;;;;;0.10;0.10;;;;;;;10.20;100.00;97455.88;4985291;28;20352;-83
2023/10/01 01:35:27;;;;;;;0.10;0.10;;;;;;;10.19;100.00;97446.19;4988000;28;20702;-85
2023/10/01 01:38:13;;;;;;;0.10;0.10;;;;;;;10.20;100.00;97442.50;4988561;28;20045;-87
2023/10/01 01:41:00;;;;;;;0.00;0.00;;;;;;;10.18;100.00;97440.00;4970874;28;20456;-87
2023/10/01 01:43:50;;;;;;;0.10;0.10;;;;;;;10.10;100.00;97426.13;4972335;28;20038;-85
2023/10/01 01:46:35;;;;;;;0.00;0.00;;;;;;;10.09;100.00;97437.84;4988583;28;20046;-87
2023/10/01 01:49:21;;;;;;;0.10;0.10;;;;;;;10.04;100.00;97431.31;4972186;28;20037;-87
2023/10/01 01:52:07;;;;;;;0.10;0.10;;;;;;;10.03;100.00;97427.00;4987698;28;20053;-88
2023/10/01 01:54:53;;;;;;;0.10;0.10;;;;;;;10.11;100.00;97425.06;4972121;28;20872;-87
2023/10/01 01:57:39;;;;;;;0.10;0.10;;;;;;;10.09;100.00;97409.25;4988601;28;20049;-87
2023/10/01 02:00:25;;;;;;;0.10;0.10;;;;;;;10.13;100.00;97412.31;4970830;28;27396;-88
2023/10/01 02:03:17;;;;;;;0.10;0.10;;;;;;;10.11;100.00;97422.41;4990357;28;20045;-87
2023/10/01 02:06:07;;;;;;;0.10;0.10;;;;;;;10.09;100.00;97421.81;4977109;28;20280;-87
2023/10/01 02:09:00;;;;;;;0.10;0.10;;;;;;;10.09;100.00;97414.59;4963363;28;20125;-86
2023/10/01 02:11:48;;;;;;;0.00;0.00;;;;;;;10.10;100.00;97421.59;4992120;28;20159;-86
2023/10/01 02:14:35;;;;;;;0.10;0.10;;;;;;;10.10;100.00;97402.88;4977293;28;20764;-86
2023/10/01 02:17:22;;;;;;;0.10;0.10;;;;;;;10.12;100.00;97405.34;4976925;28;20112;-86
2023/10/01 02:20:27;;;;;;;0.10;0.10;;;;;;;10.13;100.00;97404.28;4973696;28;20047;-87
2023/10/01 02:23:13;;;;;;;0.10;0.10;;;;;;;10.11;100.00;97404.50;4991239;28;20610;-85
2023/10/01 02:26:00;;;;;;;0.10;0.10;;;;;;;10.13;100.00;97404.28;4991010;28;20052;-86
2023/10/01 02:28:46;;;;;;;0.10;0.10;;;;;;;10.17;100.00;97406.28;4992229;28;20053;-86
2023/10/01 02:31:36;;;;;;;0.10;0.10;;;;;;;10.16;100.00;97393.97;4989270;28;20088;-84
2023/10/01 02:34:29;;;;;;;0.10;0.10;;;;;;;10.16;100.00;97390.47;4990988;28;20045;-86
2023/10/01 02:37:25;;;;;;;0.10;0.10;;;;;;;10.18;100.00;97402.56;4990846;28;20149;-85
2023/10/01 02:40:14;;;;;;;0.10;0.10;;;;;;;10.12;100.00;97405.34;4980188;28;20499;-85
2023/10/01 02:43:03;;;;;;;0.17;0.17;;;;;;;10.09;100.00;97409.25;4978959;28;20625;-82
2023/10/01 02:45:50;;;;;;;0.10;0.10;;;;;;;10.08;100.00;97404.94;4991808;28;20060;-85
2023/10/01 02:48:40;;;;;;;0.10;0.10;;;;;;;10.01;100.00;97402.34;4991451;28;20042;-84
2023/10/01 02:51:32;;;;;;;0.10;0.10;;;;;;;10.05;100.00;97413.44;4991437;28;20041;-85
2023/10/01 02:54:20;;;;;;;0.10;0.10;;;;;;;10.01;100.00;97406.88;5001130;28;20061;-83
2023/10/01 02:57:12;;;;;;;0.10;0.10;;;;;;;9.99;100.00;97411.63;4999727;28;20089;-83
2023/10/01 03:03:04;;;;;;;0.10;0.10;;;;;;;9.95;100.00;97397.88;4988247;28;20433;-85
2023/10/01 03:05:50;;;;;;;0.10;0.10;;;;;;;9.94;100.00;97401.59;4989152;28;20073;-86
2023/10/01 03:11:40;;;;;;;0.10;0.10;;;;;;;9.89;100.00;97398.78;4990987;28;20046;-86
2023/10/01 03:14:27;;;;;;;0.10;0.10;;;;;;;9.85;100.00;97391.41;4986406;28;20042;-87
2023/10/01 03:17:18;;;;;;;0.10;0.10;;;;;;;9.85;100.00;97394.09;4991164;28;20108;-83
2023/10/01 03:20:58;;;;;;;0.10;0.10;;;;;;;9.82;100.00;97405.22;4978013;28;20045;-85
2023/10/01 03:26:08;;;;;;;0.10;0.10;;;;;;;9.62;100.00;97398.19;4990746;28;20046;-83
2023/10/01 03:32:26;;;;;;;0.10;0.10;;;;;;;9.56;100.00;97400.91;4989948;28;20160;-84
2023/10/01 03:35:08;;;;;;;0.10;0.10;;;;;;;9.44;100.00;97390.16;4985516;28;20072;-84
2023/10/01 03:38:09;;;;;;;0.10;0.10;;;;;;;9.45;100.00;97399.78;4987772;28;20121;-84
2023/10/01 03:41:00;;;;;;;0.10;0.10;;;;;;;9.33;100.00;97405.00;4990749;28;20038;-85
2023/10/01 03:43:47;;;;;;;0.10;0.10;;;;;;;9.35;100.00;97404.81;4988743;28;20092;-85
2023/10/01 03:46:33;;;;;;;0.10;0.10;;;;;;;9.24;100.00;97403.66;4990476;28;20114;-87
2023/10/01 03:49:44;;;;;;;0.10;0.10;;;;;;;9.29;100.00;97403.81;4988116;28;20088;-86
2023/10/01 03:52:29;;;;;;;0.10;0.10;;;;;;;9.31;100.00;97390.25;4969399;28;20459;-84
2023/10/01 03:55:26;;;;;;;0.10;0.10;;;;;;;9.35;100.00;97399.47;4989043;28;20045;-85
2023/10/01 03:58:18;;;;;;;0.10;0.10;;;;;;;9.38;100.00;97405.19;4989101;28;20536;-85
2023/10/01 04:01:25;;;;;;;0.10;0.10;;;;;;;9.44;100.00;97401.66;4989196;28;20109;-85
2023/10/01 04:04:11;;;;;;;0.10;0.10;;;;;;;9.55;100.00;97408.13;4994543;28;20037;-86
2023/10/01 04:07:02;;;;;;;0.10;0.10;;;;;;;9.59;100.00;97400.50;4993725;28;20050;-86
2023/10/01 04:09:50;;;;;;;0.10;0.10;;;;;;;9.64;100.00;97401.47;4992900;28;20151;-86
2023/10/01 04:12:37;;;;;;;0.10;0.10;;;;;;;9.70;100.00;97403.25;4991073;28;20914;-85
2023/10/01 04:15:31;;;;;;;0.10;0.10;;;;;;;9.83;100.00;97409.53;4988295;28;20042;-88
2023/10/01 04:23:49;;;;;;;0.10;0.10;;;;;;;9.88;100.00;97409.66;4989266;28;20601;-86
2023/10/01 04:26:35;;;;;;;0.10;0.10;;;;;;;9.85;100.00;97400.25;4987426;28;20063;-85
2023/10/01 04:29:24;;;;;;;0.10;0.10;;;;;;;9.91;100.00;97409.25;4993492;28;20045;-86
2023/10/01 04:32:12;;;;;;;0.10;0.10;;;;;;;9.92;100.00;97408.19;5010680;28;20034;-85
2023/10/01 04:35:11;;;;;;;0.10;0.10;;;;;;;9.90;100.00;97405.75;4998529;28;20034;-88
2023/10/01 04:37:57;;;;;;;0.10;0.10;;;;;;;9.91;100.00;97407.38;4991971;28;20568;-87
2023/10/01 04:40:46;;;;;;;0.00;0.00;;;;;;;9.90;100.00;97407.63;4991849;28;20049;-90
2023/10/01 04:43:34;;;;;;;0.10;0.10;;;;;;;9.87;100.00;97408.84;4991377;28;20501;-88
2023/10/01 04:46:24;;;;;;;0.10;0.10;;;;;;;9.86;100.00;97401.06;4991441;28;20261;-87
2023/10/01 04:49:31;;;;;;;0.10;0.10;;;;;;;9.84;100.00;97397.78;4989663;28;20045;-87
2023/10/01 04:52:17;;;;;;;0.10;0.10;;;;;;;9.81;100.00;97396.41;4989970;28;20736;-86
2023/10/01 04:55:08;;;;;;;0.10;0.10;;;;;;;9.74;100.00;97395.63;4990009;28;20436;-87
2023/10/01 04:57:56;;;;;;;0.10;0.10;;;;;;;9.77;100.00;97406.69;4975960;28;20053;-87
2023/10/01 05:00:45;;;;;;;0.10;0.10;;;;;;;9.71;100.00;97404.88;4989888;28;20136;-88
2023/10/01 05:03:40;;;;;;;0.10;0.10;;;;;;;9.72;100.00;97417.22;4988022;28;20053;-87
2023/10/01 05:06:27;;;;;;;0.10;0.10;;;;;;;9.68;100.00;97410.69;4990290;28;20038;-89
2023/10/01 05:09:15;;;;;;;0.10;0.10;;;;;;;9.71;100.00;97404.06;4990557;28;20042;-87
2023/10/01 05:12:03;;;;;;;0.10;0.10;;;;;;;9.74;100.00;97412.50;4991241;28;20100;-87
2023/10/01 05:15:17;;;;;;;0.03;0.03;;;;;;;9.77;100.00;97409.38;4988493;28;20042;-84
2023/10/01 05:18:04;;;;;;;0.00;0.00;;;;;;;9.80;100.00;97412.63;4990609;28;20038;-86
2023/10/01 05:20:58;;;;;;;0.10;0.10;;;;;;;9.77;100.00;97416.56;4993112;28;20038;-87
2023/10/01 05:23:48;;;;;;;0.10;0.10;;;;;;;9.74;100.00;97404.47;4991395;28;20042;-85
2023/10/01 05:26:35;;;;;;;0.10;0.10;;;;;;;9.77;100.00;97401.34;4988740;28;20504;-86
2023/10/01 05:29:21;;;;;;;0.08;0.08;;;;;;;9.84;100.00;97413.84;4976666;28;20061;-86
2023/10/01 05:32:07;;;;;;;0.10;0.10;;;;;;;9.83;100.00;97409.53;4991594;28;20050;-85
2023/10/01 05:34:53;;;;;;;0.00;0.00;;;;;;;9.84;100.00;97429.88;4991830;28;20045;-85
2023/10/01 05:37:39;;;;;;;0.10;0.10;;;;;;;9.84;100.00;97429.88;4987986;28;20765;-89
2023/10/01 05:40:29;;;;;;;0.10;0.10;;;;;;;9.80;100.00;97434.81;4991620;28;20037;-85
2023/10/01 05:43:15;;;;;;;0.10;0.10;;;;;;;9.88;100.00;97437.22;4995046;28;20038;-88
2023/10/01 05:46:02;;;;;;;0.10;0.10;;;;;;;9.93;100.00;97433.91;4993385;28;20061;-90
2023/10/01 05:48:49;;;;;;;0.10;0.10;;;;;;;9.90;100.00;97440.50;4993552;28;20041;-86
2023/10/01 05:51:56;;;;;;;0.13;0.13;;;;;;;9.99;100.00;97439.19;4992324;28;21702;-85
2023/10/01 05:54:50;;;;;;;0.10;0.10;;;;;;;10.01;100.00;97430.94;4992421;28;20983;-85
2023/10/01 05:57:37;;;;;;;0.10;0.10;;;;;;;10.07;100.00;97446.09;4992294;28;20042;-88
2023/10/01 06:00:27;;;;;;;0.10;0.10;;;;;;;10.10;100.00;97439.47;4992438;28;20050;-85
2023/10/01 06:03:15;;;;;;;0.10;0.10;;;;;;;10.10;100.00;97451.00;4994452;28;20097;-86
2023/10/01 06:06:10;;;;;;;0.10;0.10;;;;;;;10.14;100.00;97441.50;4978134;28;20061;-87
2023/10/01 06:08:59;;;;;;;0.10;0.10;;;;;;;10.22;100.00;97440.41;4991416;28;20053;-85
2023/10/01 06:11:48;;;;;;;0.10;0.10;;;;;;;10.23;100.00;97431.38;4992392;28;20677;-87
2023/10/01 06:14:39;;;;;;;0.10;0.10;;;;;;;10.32;100.00;97435.38;4991887;28;20398;-87
2023/10/01 06:17:28;;;;;;;0.10;0.10;;;;;;;10.33;100.00;97442.34;4991467;28;20046;-86
2023/10/01 06:20:23;;;;;;;0.10;0.10;;;;;;;10.37;100.00;97443.56;4991515;28;20053;-87
2023/10/01 06:23:10;;;;;;;0.10;0.10;;;;;;;10.43;100.00;97439.19;4992881;28;20121;-87
2023/10/01 06:25:58;;;;;;;0.10;0.10;;;;;;;10.49;100.00;97452.47;4991117;28;20052;-86
2023/10/01 06:28:44;;;;;;;0.10;0.10;;;;;;;10.53;100.00;97434.13;4991153;28;21011;-86
2023/10/01 06:31:47;;;;;;;0.13;0.13;;;;;;;10.71;100.00;97450.16;4990198;28;20054;-86
2023/10/01 06:34:33;;;;;;;0.10;0.10;;;;;;;10.81;100.00;97445.06;4990231;28;20057;-86
2023/10/01 06:37:19;;;;;;;0.10;0.10;;;;;;;10.90;100.00;97442.91;4989849;28;20052;-86
2023/10/01 06:40:29;;;;;;;0.10;0.10;;;;;;;10.98;100.00;97436.44;4989815;28;20511;-86
2023/10/01 06:43:12;;;;;;;0.10;0.10;;;;;;;11.06;100.00;97450.31;4993153;28;20746;-86
2023/10/01 06:46:03;;;;;;;0.10;0.10;;;;;;;11.06;100.00;97458.34;4992052;28;20042;-86
2023/10/01 06:48:51;;;;;;;0.10;0.10;;;;;;;11.09;100.00;97452.53;4988065;28;20124;-87
2023/10/01 06:51:43;;;;;;;0.10;0.10;;;;;;;11.13;100.00;97461.75;4977805;28;20057;-86
2023/10/01 06:54:29;;;;;;;0.10;0.10;;;;;;;11.21;100.00;97454.44;4987899;28;20046;-87
2023/10/01 06:57:19;;;;;;;0.10;0.10;;;;;;;11.26;100.00;97447.34;4986336;28;20485;-86
2023/10/01 07:00:13;;;;;;;0.10;0.10;;;;;;;11.33;100.00;97455.28;4974415;28;20054;-85
2023/10/01 07:03:16;;;;;;;0.10;0.10;;;;;;;11.42;100.00;97453.91;4987219;28;20081;-85
2023/10/01 07:06:04;;;;;;;0.10;0.10;;;;;;;11.50;100.00;97466.16;4989891;28;20641;-86
2023/10/01 07:08:53;;;;;;;0.10;0.10;;;;;;;11.52;100.00;97461.41;4991716;28;20046;-87
2023/10/01 07:11:39;;;;;;;0.13;0.13;;;;;;;11.61;100.00;97460.03;4991650;28;20909;-87
2023/10/01 07:14:44;;;;;;;0.10;0.10;;;;;;;11.66;100.00;97455.56;4989236;28;20042;-88
2023/10/01 07:17:31;;;;;;;0.10;0.10;;;;;;;11.72;100.00;97462.69;4989433;28;20073;-85
2023/10/01 07:20:21;;;;;;;0.10;0.10;;;;;;;11.79;100.00;97454.56;4988326;28;20378;-85
2023/10/01 07:23:06;;;;;;;0.10;0.10;;;;;;;11.82;100.00;97450.63;4988176;28;20133;-86
2023/10/01 07:26:00;;;;;;;0.10;0.10;;;;;;;11.98;100.00;97472.22;4985361;28;20061;-86
2023/10/01 07:28:55;;;;;;;0.10;0.10;;;;;;;12.07;100.00;97470.00;4988153;28;20050;-88
2023/10/01 07:31:43;;;;;;;0.10;0.10;;;;;;;12.18;100.00;97463.00;4989856;28;20751;-85
2023/10/01 07:34:31;;;;;;;0.10;0.10;;;;;;;12.28;100.00;97469.41;4988954;28;20057;-86
2023/10/01 07:37:23;;;;;;;0.10;0.10;;;;;;;12.31;100.00;97465.44;4993236;28;20802;-86
2023/10/01 07:40:13;;;;;;;0.00;0.00;;;;;;;12.41;100.00;97462.97;4990209;28;20050;-85
2023/10/01 07:43:01;;;;;;;0.10;0.10;;;;;;;12.48;100.00;97455.63;4987758;28;20092;-86
2023/10/01 07:45:55;;;;;;;0.00;0.00;;;;;;;12.58;100.00;97464.94;4989948;28;20045;-86
2023/10/01 07:48:47;;;;;;;0.10;0.10;;;;;;;12.66;100.00;97453.81;4986907;28;20081;-86
2023/10/01 07:51:38;;;;;;;0.10;0.10;;;;;;;12.72;100.00;97456.38;4988037;28;20524;-85
2023/10/01 07:54:28;;;;;;;0.10;0.10;;;;;;;12.79;100.00;97461.63;4989212;28;20038;-86
2023/10/01 07:57:16;;;;;;;0.10;0.10;;;;;;;12.82;100.00;97453.06;4989811;28;20156;-87
2023/10/01 08:00:25;;;;;;;0.10;0.10;;;;;;;13.00;100.00;97458.28;4988904;28;20061;-86
2023/10/01 08:06:16;;;;;;;0.10;0.10;;;;;;;13.21;100.00;97454.13;4992123;28;20599;-85
2023/10/01 08:09:11;;;;;;;0.10;0.10;;;;;;;13.27;100.00;97452.34;4987038;28;20168;-87
2023/10/01 08:12:06;;;;;;;0.10;0.10;;;;;;;13.40;100.00;97454.75;4993568;28;20065;-87
2023/10/01 08:15:15;;;;;;;0.10;0.10;;;;;;;13.54;100.00;97456.06;4990137;28;20657;-86
2023/10/01 08:21:04;;;;;;;0.10;0.10;;;;;;;13.85;100.00;97459.22;4989136;28;20088;-85
2023/10/01 08:23:54;;;;;;;0.10;0.10;;;;;;;13.97;100.00;97456.47;4990126;28;20316;-86
2023/10/01 08:26:42;;;;;;;0.10;0.10;;;;;;;14.06;100.00;97468.44;4989973;28;20049;-88
2023/10/01 08:29:28;;;;;;;0.10;0.10;;;;;;;14.14;100.00;97470.72;4990863;28;20481;-86
2023/10/01 08:32:14;;;;;;;0.10;0.10;;;;;;;14.23;100.00;97467.34;4990606;28;20042;-87
2023/10/01 08:35:05;;;;;;;0.10;0.10;;;;;;;14.31;100.00;97466.13;4990292;28;20038;-86
2023/10/01 08:37:59;;;;;;;0.10;0.10;;;;;;;14.41;100.00;97473.56;4982695;28;20991;-86
2023/10/01 08:40:49;;;;;;;0.10;0.10;;;;;;;14.57;100.00;97478.13;4989196;28;20045;-86
2023/10/01 08:43:35;;;;;;;0.10;0.10;;;;;;;14.71;100.00;97474.00;4989402;28;20042;-87
2023/10/01 08:46:31;;;;;;;0.10;0.10;;;;;;;14.89;100.00;97480.13;4988438;28;20146;-87
2023/10/01 08:49:23;;;;;;;0.10;0.10;;;;;;;15.02;100.00;97474.38;4985884;28;20146;-86
2023/10/01 08:52:19;;;;;;;0.10;0.10;;;;;;;14.93;100.00;97473.97;4992056;28;20042;-86
2023/10/01 08:55:08;;;;;;;0.10;0.10;;;;;;;14.93;100.00;97479.34;4990128;28;20131;-86
2023/10/01 08:57:55;;;;;;;0.17;0.17;;;;;;;15.04;100.00;97470.34;4989655;28;20048;-86
2023/10/01 09:01:11;;;;;;;0.08;0.08;;;;;;;15.21;100.00;97475.66;4989582;28;20049;-87
2023/10/01 09:03:57;;;;;;;0.10;0.10;;;;;;;15.33;100.00;97476.31;4987297;28;20098;-89
2023/10/01 09:06:58;;;;;;;0.10;0.10;;;;;;;15.30;100.00;97474.13;4990441;28;20436;-86
2023/10/01 09:10:06;;;;;;;0.10;0.10;;;;;;;15.43;100.00;97477.50;4987742;28;20050;-87
2023/10/01 09:13:03;;;;;;;0.10;0.10;;;;;;;15.63;100.00;97464.22;4992088;28;20044;-86
2023/10/01 09:15:59;;;;;;;0.10;0.10;;;;;;;15.71;100.00;97461.03;4994101;28;20591;-86
2023/10/01 09:19:03;;;;;;;0.10;0.10;;;;;;;15.87;100.00;97467.38;4996526;28;20055;-86
2023/10/01 09:21:49;;;;;;;0.10;0.10;;;;;;;15.80;100.00;97473.03;4995666;28;20603;-87
2023/10/01 09:24:39;;;;;;;0.20;0.20;;;;;;;15.91;100.00;97457.72;4994805;28;20041;-88
2023/10/01 09:27:28;;;;;;;0.10;0.10;;;;;;;16.10;100.00;97471.59;4994057;28;20505;-86
2023/10/01 09:30:34;;;;;;;0.10;0.10;;;;;;;16.29;100.00;97470.13;4993462;28;20604;-86
2023/10/01 09:33:24;;;;;;;0.10;0.10;;;;;;;16.13;100.00;97466.53;4981065;28;20047;-86
2023/10/01 09:36:31;;;;;;;0.10;0.10;;;;;;;16.30;100.00;97465.53;4968781;28;20074;-84
2023/10/01 09:39:22;;;;;;;0.10;0.10;;;;;;;16.58;100.00;97465.19;4989523;28;20117;-86
2023/10/01 09:42:28;;;;;;;0.10;0.10;;;;;;;16.44;100.00;97466.72;4998071;28;20042;-87
2023/10/01 09:45:27;;;;;;;0.10;0.10;;;;;;;16.52;100.00;97465.41;4968179;28;20849;-86
2023/10/01 09:48:30;;;;;;;0.10;0.10;;;;;;;16.89;100.00;97455.34;4997173;28;20046;-86
2023/10/01 09:51:20;;;;;;;0.10;0.10;;;;;;;17.18;100.00;97465.69;4995843;28;20051;-85
2023/10/01 09:54:09;;;;;;;0.20;0.20;;;;;;;17.06;100.00;97473.25;4997496;28;20120;-86
2023/10/01 09:56:56;;;;;;;0.10;0.10;;;;;;;17.54;100.00;97464.72;4995742;28;20065;-87
2023/10/01 09:59:46;;;;;;;0.10;0.10;;;;;;;18.14;100.00;97461.50;4997932;28;20417;-84
2023/10/01 10:02:32;;;;;;;0.13;0.13;;;;;;;18.67;100.00;97451.09;4981559;28;20046;-85
2023/10/01 10:05:26;;;;;;;0.10;0.10;;;;;;;20.13;100.00;97459.47;4996333;28;20042;-85
2023/10/01 10:08:13;;;;;;;0.10;0.10;;;;;;;21.87;100.00;97458.19;4996623;28;20869;-86
2023/10/01 10:10:59;;;;;;;0.10;0.10;;;;;;;23.80;92.22;97451.69;4997643;28;20057;-85
2023/10/01 10:13:45;;;;;;;0.20;0.20;;;;;;;24.55;85.16;97452.81;4989755;28;20046;-86
2023/10/01 10:16:58;;;;;;;0.20;0.20;;;;;;;25.63;70.78;97450.56;4995173;28;20061;-85
2023/10/01 10:20:25;;;;;;;0.20;0.20;;;;;;;25.82;69.75;97449.13;4995951;28;20140;-87
2023/10/01 10:23:14;;;;;;;0.10;0.10;;;;;;;28.36;52.78;97438.09;4996748;28;20124;-87
2023/10/01 10:26:14;;;;;;;0.10;0.10;;;;;;;26.93;51.34;97440.94;4990506;28;20603;-86
2023/10/01 10:29:01;;;;;;;0.10;0.10;;;;;;;28.45;50.76;97432.50;4990628;28;20069;-85
2023/10/01 10:32:09;;;;;;;0.10;0.10;;;;;;;29.10;45.41;97434.28;4991608;28;20050;-86
2023/10/01 10:35:04;;;;;;;0.10;0.10;;;;;;;29.25;40.70;97437.47;4993620;28;20595;-86
2023/10/01 10:37:53;;;;;;;0.20;0.20;;;;;;;29.57;43.97;97446.75;4968552;28;20049;-86
2023/10/01 10:41:07;;;;;;;0.20;0.20;;;;;;;30.77;37.44;97430.03;4990901;28;20057;-88
2023/10/01 10:44:08;;;;;;;0.20;0.20;;;;;;;31.21;36.07;97443.72;4995011;28;20092;-87
2023/10/01 10:47:05;;;;;;;;;;;;;;;31.74;35.54;97435.78;4992712;28;21030;-87
2023/10/01 10:49:52;;;;;;;0.20;0.20;;;;;;;30.70;36.88;97443.66;4993015;28;20339;-87
2023/10/01 10:52:38;;;;;;;0.10;0.10;;;;;;;31.89;37.23;97445.22;4991710;28;20060;-85
2023/10/01 10:55:30;;;;;;;0.10;0.10;;;;;;;33.53;34.50;97437.03;4990809;28;20061;-86
2023/10/01 10:58:20;;;;;;;0.10;0.10;;;;;;;35.01;31.80;97428.00;4993883;28;20045;-87
2023/10/01 11:01:18;;;;;;;0.20;0.20;;;;;;;33.62;30.25;97440.34;4993756;28;20559;-87
2023/10/01 11:04:05;;;;;;;0.20;0.20;;;;;;;33.39;31.04;97434.09;4993012;28;20178;-87
2023/10/01 11:07:19;;;;;;;0.15;0.15;;;;;;;32.56;31.34;97431.91;4979113;28;20052;-87
2023/10/01 11:10:04;;;;;;;0.10;0.10;;;;;;;33.54;33.22;97430.31;4993137;28;20497;-86
2023/10/01 11:12:54;;;;;;;0.10;0.10;;;;;;;32.64;30.79;97419.78;4993342;28;20050;-86
2023/10/01 11:15:40;;;;;;;0.10;0.10;;;;;;;33.04;31.33;97426.00;4993106;28;20034;-86
2023/10/01 11:18:26;;;;;;;0.10;0.10;;;;;;;34.02;30.86;97414.72;4991669;28;20165;-87
2023/10/01 11:21:20;;;;;;;0.10;0.10;;;;;;;33.72;28.86;97417.50;4992299;28;20084;-87
2023/10/01 11:24:06;;;;;;;0.13;0.13;;;;;;;35.94;27.74;97420.22;4989463;28;20603;-87
2023/10/01 11:27:20;;;;;;;0.10;0.10;;;;;;;33.41;29.02;97413.13;4993075;28;20153;-87
2023/10/01 11:30:20;;;;;;;0.10;0.10;;;;;;;34.86;28.37;97404.81;4987983;28;20132;-87
2023/10/01 11:36:09;;;;;;;0.10;0.10;;;;;;;35.95;29.18;97400.34;4991889;28;20745;-87
2023/10/01 11:38:56;;;;;;;0.10;0.10;;;;;;;36.79;25.32;97389.75;4975103;28;20204;-88
2023/10/01 11:41:43;;;;;;;0.10;0.10;;;;;;;37.41;26.45;97376.56;4989769;28;20738;-87
2023/10/01 11:44:35;;;;;;;0.10;0.10;;;;;;;38.13;25.86;97375.06;4991482;28;20050;-86
2023/10/01 11:47:34;;;;;;;0.10;0.10;;;;;;;35.57;26.85;97378.72;4980829;28;20070;-86
2023/10/01 11:50:23;;;;;;;0.10;0.10;;;;;;;37.35;26.04;97368.59;4991180;28;20069;-87
2023/10/01 11:53:10;;;;;;;0.10;0.10;;;;;;;38.98;26.01;97376.47;4990062;28;20672;-87
2023/10/01 11:56:01;;;;;;;0.10;0.10;;;;;;;37.74;26.40;97373.25;4986577;28;20097;-87
2023/10/01 11:58:49;;;;;;;0.10;0.10;;;;;;;36.83;27.28;97359.88;4988835;28;20163;-87
2023/10/01 12:01:47;;;;;;;0.10;0.10;;;;;;;36.77;25.76;97366.25;4989132;28;20046;-87
2023/10/01 12:04:48;;;;;;;0.10;0.10;;;;;;;34.48;28.58;97369.97;4990029;28;20049;-87
2023/10/01 12:07:43;;;;;;;0.10;0.10;;;;;;;34.14;29.51;97366.44;4990812;28;20052;-87
2023/10/01 12:10:31;;;;;;;0.10;0.10;;;;;;;33.41;29.86;97365.97;4990381;28;20844;-87
2023/10/01 12:13:17;;;;;;;0.10;0.10;;;;;;;34.10;29.82;97371.16;4993961;28;20064;-87
2023/10/01 12:16:07;;;;;;;0.10;0.10;;;;;;;36.06;27.73;97352.25;4990701;28;20044;-86
2023/10/01 12:18:52;;;;;;;0.10;0.10;;;;;;;36.58;27.29;97353.53;4991455;28;20693;-85
2023/10/01 12:21:41;;;;;;;0.10;0.10;;;;;;;36.44;26.11;97353.53;4996048;28;20049;-86
2023/10/01 12:24:28;;;;;;;0.10;0.10;;;;;;;39.55;24.21;97345.91;4991606;28;20053;-87
2023/10/01 12:27:37;;;;;;;0.10;0.10;;;;;;;38.79;24.82;97347.09;4989597;28;20144;-87
2023/10/01 12:30:29;;;;;;;0.10;0.10;;;;;;;40.01;24.01;97346.53;4989076;28;20160;-87
2023/10/01 12:33:14;;;;;;;0.03;0.03;;;;;;;38.05;24.44;97342.78;4991984;28;20038;-87
2023/10/01 12:36:03;;;;;;;0.10;0.10;;;;;;;40.18;22.75;97334.31;4991706;28;20141;-86
2023/10/01 12:38:49;;;;;;;0.10;0.10;;;;;;;40.19;22.68;97338.69;4990748;28;20045;-85
2023/10/01 12:44:40;;;;;;;0.10;0.10;;;;;;;40.35;22.27;97327.63;4985199;28;20056;-86
2023/10/01 12:47:40;;;;;;;0.10;0.10;;;;;;;39.08;22.60;97332.84;4959763;28;20488;-86
2023/10/01 12:50:26;;;;;;;0.10;0.10;;;;;;;40.07;21.53;97323.22;4986020;28;20054;-86
2023/10/01 12:53:21;;;;;;;0.10;0.10;;;;;;;38.30;23.20;97335.09;4991958;28;20067;-85
2023/10/01 12:56:09;;;;;;;0.10;0.10;;;;;;;37.19;24.72;97329.16;4989450;28;20046;-85
2023/10/01 12:58:55;;;;;;;0.10;0.10;;;;;;;36.23;25.66;97335.56;4991935;28;20079;-85
2023/10/01 13:01:42;;;;;;;0.10;0.10;;;;;;;38.47;24.00;97330.56;4989398;28;20050;-85
2023/10/01 13:04:30;;;;;;;0.10;0.10;;;;;;;38.96;23.02;97329.34;4990579;28;20549;-85
2023/10/01 13:07:34;;;;;;;0.00;0.00;;;;;;;36.85;25.77;97314.91;4990673;28;20038;-85
2023/10/01 13:10:33;;;;;;;0.10;0.10;;;;;;;37.45;25.98;97327.94;4987883;28;20298;-85
2023/10/01 13:13:20;;;;;;;0.10;0.10;;;;;;;38.56;24.03;97327.28;4970865;28;20611;-85
2023/10/01 13:16:16;;;;;;;0.10;0.10;;;;;;;38.33;24.11;97323.06;4991740;28;20437;-85
2023/10/01 13:19:02;;;;;;;0.10;0.10;;;;;;;37.65;24.46;97325.44;4989026;28;20950;-85
2023/10/01 13:21:49;;;;;;;0.10;0.10;;;;;;;37.01;25.08;97320.06;4990481;28;20753;-85
2023/10/01 13:24:37;;;;;;;0.10;0.10;;;;;;;37.02;25.03;97316.06;4989307;28;20034;-85
2023/10/01 13:27:23;;;;;;;0.00;0.00;;;;;;;35.65;26.80;97317.13;4971734;28;20077;-85
2023/10/01 13:30:18;;;;;;;0.00;0.00;;;;;;;32.93;29.65;97321.31;4988636;28;20726;-85
2023/10/01 13:33:10;;;;;;;0.10;0.10;;;;;;;36.33;26.52;97311.69;4987686;28;20077;-85
2023/10/01 13:36:12;;;;;;;0.10;0.10;;;;;;;35.17;27.43;97308.13;4989424;28;20436;-85
2023/10/01 14:09:58;;;;;;;0.63;0.63;;;;;;;37.34;23.80;97279.72;4990396;28;20046;-85
2023/10/01 14:12:56;;;;;;;0.03;0.03;;;;;;;35.23;25.62;97283.53;4994562;28;20135;-84
2023/10/01 14:15:42;;;;;;;0.10;0.10;;;;;;;34.95;26.64;97275.84;4996260;28;20050;-84
2023/10/01 14:18:34;;;;;;;0.10;0.10;;;;;;;34.25;27.09;97275.72;5000893;28;20576;-84
2023/10/01 14:21:22;;;;;;;0.10;0.10;;;;;;;34.80;26.84;97272.16;4993507;28;20505;-84